Time;durP1;ratioP1;P1;durP2;ratioP2;P2;SDS_P1;SDS_P2;PMS_P1;PMS_P2;Temp;Humidity;BMP_temperature;BMP_pressure;BME280_temperature;BME280_humidity;BME280_pressure;Samples;Min_cycle;Max_cycle;Signal;HPM_P1;HPM_P2
2023/09/04 00:04:30;;;;;;;1.40;0.90;;;;;;;21.12;61.49;97505.19;10403593;28;20408;-29
2023/09/04 00:09:30;;;;;;;0.73;0.70;;;;;;;21.13;61.90;97506.06;10407922;28;20475;-29
2023/09/04 00:14:31;;;;;;;0.63;0.50;;;;;;;21.13;61.67;97523.88;10402973;28;20041;-29
2023/09/04 00:19:32;;;;;;;1.13;0.80;;;;;;;21.11;61.73;97523.88;10402256;28;20030;-28
2023/09/04 00:24:33;;;;;;;0.82;0.68;;;;;;;21.11;61.59;97526.41;10407248;28;20030;-29
2023/09/04 00:29:33;;;;;;;1.37;0.50;;;;;;;21.04;61.68;97514.53;10407099;28;20496;-28
2023/09/04 00:34:33;;;;;;;0.80;0.53;;;;;;;21.10;61.50;97517.09;10407040;28;20303;-28
2023/09/04 00:39:34;;;;;;;1.23;0.50;;;;;;;21.11;61.58;97512.81;10408474;28;20112;-28
2023/09/04 00:44:34;;;;;;;1.00;0.80;;;;;;;21.10;61.43;97517.09;10397847;28;20022;-28
2023/09/04 00:49:36;;;;;;;0.68;0.60;;;;;;;21.10;61.38;97517.09;10404779;28;20026;-28
2023/09/04 00:54:37;;;;;;;0.50;0.50;;;;;;;21.11;61.58;97515.38;10407645;28;20037;-28
2023/09/04 00:59:40;;;;;;;0.65;0.63;;;;;;;21.09;61.48;97505.22;10405306;28;20033;-28
2023/09/04 01:04:40;;;;;;;0.90;0.70;;;;;;;21.10;61.65;97496.72;10402300;28;20029;-28
2023/09/04 01:09:41;;;;;;;0.60;0.60;;;;;;;21.11;61.79;97493.31;10402492;28;20078;-28
2023/09/04 01:14:45;;;;;;;1.17;0.68;;;;;;;21.08;61.35;97474.63;10406348;28;20300;-29
2023/09/04 01:19:46;;;;;;;0.68;0.57;;;;;;;21.09;61.99;97479.75;10408222;28;20452;-28
2023/09/04 01:24:47;;;;;;;1.23;0.90;;;;;;;21.10;61.54;97485.66;10414481;28;20042;-29
2023/09/04 01:30:07;;;;;;;1.60;0.50;;;;;;;21.10;61.46;97491.63;10413659;28;20034;-29
2023/09/04 01:35:10;;;;;;;0.47;0.47;;;;;;;21.09;61.38;97497.56;10407544;28;20029;-29
2023/09/04 01:40:11;;;;;;;0.65;0.50;;;;;;;21.09;61.44;97489.94;10412740;28;20033;-29
2023/09/04 01:45:11;;;;;;;0.50;0.47;;;;;;;21.10;61.46;97490.75;10411127;28;20033;-29
2023/09/04 01:50:12;;;;;;;0.60;0.57;;;;;;;21.09;61.34;97484.84;10413767;28;20106;-28
2023/09/04 01:55:12;;;;;;;0.43;0.43;;;;;;;21.09;61.39;97473.78;10410506;28;20037;-30
2023/09/04 02:00:13;;;;;;;0.77;0.63;;;;;;;21.09;61.24;97474.66;10413225;28;20026;-29
2023/09/04 02:05:16;;;;;;;0.68;0.50;;;;;;;21.09;61.26;97473.78;10410806;28;20448;-29
2023/09/04 02:10:16;;;;;;;0.40;0.40;;;;;;;21.08;61.10;97459.34;10410699;28;20057;-28
2023/09/04 02:15:17;;;;;;;0.77;0.60;;;;;;;21.05;61.35;97446.63;10412157;28;20775;-28
2023/09/04 02:20:17;;;;;;;0.40;0.40;;;;;;;21.06;61.15;97454.25;10410767;28;20296;-28
2023/09/04 02:25:18;;;;;;;0.68;0.47;;;;;;;21.08;61.34;97462.78;10408800;28;20072;-29
2023/09/04 02:30:18;;;;;;;1.23;0.50;;;;;;;21.08;61.08;97455.13;10407619;28;20026;-29
2023/09/04 02:35:19;;;;;;;0.40;0.40;;;;;;;21.09;61.47;97456.81;10404098;28;20037;-28
2023/09/04 02:40:19;;;;;;;0.60;0.57;;;;;;;21.09;61.31;97436.47;10410475;28;20491;-28
2023/09/04 02:45:20;;;;;;;0.60;0.50;;;;;;;21.08;61.28;97432.22;10409987;28;20533;-28
2023/09/04 02:50:21;;;;;;;0.52;0.40;;;;;;;21.07;61.30;97430.47;10409256;28;20037;-28
2023/09/04 02:55:21;;;;;;;0.43;0.43;;;;;;;21.07;61.34;97420.31;10410823;28;20037;-28
2023/09/04 03:00:21;;;;;;;1.07;0.60;;;;;;;21.08;61.26;97416.94;10408538;28;20462;-29
2023/09/04 03:05:24;;;;;;;0.70;0.60;;;;;;;21.08;61.17;97416.94;10409200;28;20034;-30
2023/09/04 03:10:25;;;;;;;0.70;0.40;;;;;;;21.07;61.25;97415.22;10403149;28;20029;-29
2023/09/04 03:15:25;;;;;;;0.57;0.50;;;;;;;21.06;61.18;97413.50;10408097;28;20032;-29
2023/09/04 03:20:26;;;;;;;0.27;0.27;;;;;;;21.08;61.27;97405.88;10408615;28;20048;-28
2023/09/04 03:25:31;;;;;;;0.28;0.28;;;;;;;21.06;61.02;97403.31;10404928;28;20295;-28
2023/09/04 03:30:33;;;;;;;0.52;0.50;;;;;;;21.08;61.11;97396.56;10406477;28;20057;-29
2023/09/04 03:35:34;;;;;;;0.63;0.40;;;;;;;21.08;61.06;97386.38;10406756;28;20526;-29
2023/09/04 03:40:35;;;;;;;0.47;0.47;;;;;;;21.08;61.17;97385.50;10417159;28;20144;-30
2023/09/04 03:45:36;;;;;;;0.60;0.50;;;;;;;21.07;60.98;97373.63;10404783;28;20025;-29
2023/09/04 03:50:36;;;;;;;0.40;0.40;;;;;;;21.06;60.91;97366.84;10402725;28;20037;-28
2023/09/04 03:55:37;;;;;;;0.43;0.30;;;;;;;21.01;61.23;97360.91;10406955;28;20292;-28
2023/09/04 04:00:37;;;;;;;0.43;0.40;;;;;;;21.08;60.96;97372.78;10404220;28;20036;-29
2023/09/04 04:05:37;;;;;;;0.50;0.50;;;;;;;21.07;61.01;97369.38;10405123;28;20030;-28
2023/09/04 04:10:39;;;;;;;0.38;0.30;;;;;;;21.08;61.19;97376.19;10415109;28;20037;-28
2023/09/04 04:15:41;;;;;;;0.50;0.40;;;;;;;21.08;60.94;97382.97;10405176;28;20038;-29
2023/09/04 04:20:44;;;;;;;1.00;0.47;;;;;;;21.08;61.10;97380.44;10407266;28;20025;-30
2023/09/04 04:25:44;;;;;;;1.85;0.50;;;;;;;21.06;60.94;97385.50;10398515;28;20464;-28
2023/09/04 04:30:45;;;;;;;1.00;0.47;;;;;;;21.01;60.96;97373.63;10407324;28;20053;-28
2023/09/04 04:35:51;;;;;;;0.82;0.60;;;;;;;21.07;61.13;97379.56;10404227;28;20778;-28
2023/09/04 04:40:51;;;;;;;0.30;0.30;;;;;;;21.07;60.90;97382.09;10401491;28;20125;-30
2023/09/04 04:45:55;;;;;;;2.33;0.47;;;;;;;21.08;60.95;97385.50;10404940;28;20084;-28
2023/09/04 04:50:55;;;;;;;0.30;0.30;;;;;;;21.08;60.98;97383.84;10405534;28;20029;-28
2023/09/04 04:55:59;;;;;;;1.13;0.80;;;;;;;21.09;61.07;97382.13;10409531;28;20067;-28
2023/09/04 05:01:00;;;;;;;1.70;0.65;;;;;;;21.09;61.41;97388.06;10400032;28;20079;-28
2023/09/04 05:06:02;;;;;;;0.88;0.68;;;;;;;21.09;61.18;97380.44;10411311;28;20116;-29
2023/09/04 05:11:06;;;;;;;0.47;0.43;;;;;;;21.08;61.01;97378.75;10412528;28;20573;-28
2023/09/04 05:16:10;;;;;;;1.45;0.60;;;;;;;21.07;61.01;97374.47;10392758;28;20030;-28
2023/09/04 05:21:12;;;;;;;3.28;1.67;;;;;;;21.05;62.05;97386.34;10413199;28;20033;-28
2023/09/04 05:26:12;;;;;;;0.50;0.50;;;;;;;21.07;61.27;97397.38;10409715;28;20407;-29
2023/09/04 05:31:13;;;;;;;2.35;0.75;;;;;;;21.07;60.96;97383.81;10414141;28;20280;-28
2023/09/04 05:36:13;;;;;;;2.45;0.73;;;;;;;21.06;61.19;97393.16;10411070;28;20029;-28
2023/09/04 05:41:14;;;;;;;4.13;0.80;;;;;;;21.04;61.79;97399.94;10405969;28;20040;-29
2023/09/04 05:46:15;;;;;;;1.70;0.68;;;;;;;21.06;61.59;97388.06;10428221;28;20290;-29
2023/09/04 05:51:15;;;;;;;2.33;0.80;;;;;;;21.07;61.27;97399.09;10406821;28;20044;-28
2023/09/04 05:56:16;;;;;;;3.90;0.87;;;;;;;21.06;61.27;97398.25;10410514;28;20091;-27
2023/09/04 06:01:18;;;;;;;0.93;0.70;;;;;;;21.06;61.27;97400.78;10415112;28;20030;-29
2023/09/04 06:06:19;;;;;;;1.08;0.70;;;;;;;21.06;61.30;97403.31;10410385;28;20052;-29
2023/09/04 06:11:20;;;;;;;0.60;0.50;;;;;;;21.03;61.27;97400.78;10413011;28;20517;-29
2023/09/04 06:16:20;;;;;;;0.70;0.68;;;;;;;21.07;61.28;97404.19;10409660;28;20056;-28
2023/09/04 06:21:20;;;;;;;3.50;0.70;;;;;;;21.07;61.19;97410.13;10412885;28;20033;-29
2023/09/04 06:26:21;;;;;;;0.60;0.50;;;;;;;21.05;61.18;97401.63;10403919;28;20037;-28
2023/09/04 06:31:21;;;;;;;1.30;0.63;;;;;;;21.07;61.30;97399.94;10409728;28;20041;-29
2023/09/04 06:36:22;;;;;;;1.40;0.68;;;;;;;21.08;61.03;97404.19;10412239;28;20041;-28
2023/09/04 06:41:23;;;;;;;2.00;0.60;;;;;;;21.07;61.24;97399.94;10410021;28;20484;-29
2023/09/04 06:46:24;;;;;;;1.00;0.55;;;;;;;21.05;61.11;97391.44;10412166;28;20116;-27
2023/09/04 06:51:25;;;;;;;1.60;0.60;;;;;;;21.07;61.04;97394.00;10411377;28;20087;-28
2023/09/04 06:56:25;;;;;;;1.73;0.60;;;;;;;21.07;61.15;97397.38;10411336;28;20044;-28
2023/09/04 07:01:25;;;;;;;0.60;0.53;;;;;;;21.07;61.16;97383.81;10407890;28;20496;-29
2023/09/04 07:06:26;;;;;;;1.03;0.50;;;;;;;21.08;61.11;97388.06;10411436;28;20425;-28
2023/09/04 07:11:26;;;;;;;0.93;0.73;;;;;;;21.03;61.21;97372.78;10406419;28;20496;-28
2023/09/04 07:16:27;;;;;;;2.33;1.30;;;;;;;21.09;61.67;97382.97;10404219;28;20041;-29
2023/09/04 07:21:27;;;;;;;1.13;0.67;;;;;;;21.10;61.55;97384.69;10410074;28;20455;-29
2023/09/04 07:26:27;;;;;;;1.30;0.90;;;;;;;20.95;61.33;97366.84;10405005;28;20037;-29
2023/09/04 07:31:28;;;;;;;0.93;0.80;;;;;;;21.08;61.39;97381.28;10410056;28;20037;-29
2023/09/04 07:36:28;;;;;;;0.98;0.85;;;;;;;21.07;61.73;97379.56;10401405;28;20049;-28
2023/09/04 07:41:30;;;;;;;0.97;0.80;;;;;;;21.08;61.42;97382.97;10409724;28;20479;-28
2023/09/04 07:46:30;;;;;;;1.65;0.70;;;;;;;21.08;61.31;97381.28;10407321;28;20037;-28
2023/09/04 07:51:31;;;;;;;1.33;0.77;;;;;;;21.07;61.38;97361.72;10408205;28;20488;-29
2023/09/04 07:56:31;;;;;;;0.43;0.43;;;;;;;21.08;61.37;97366.00;10408922;28;20095;-29
2023/09/04 08:01:32;;;;;;;2.17;1.30;;;;;;;21.10;61.93;97369.41;10406919;28;20064;-28
2023/09/04 08:06:33;;;;;;;1.13;0.90;;;;;;;21.09;61.58;97367.69;10408945;28;20288;-29
2023/09/04 08:11:34;;;;;;;1.90;1.20;;;;;;;21.10;61.60;97371.94;10401395;28;20042;-28
2023/09/04 08:16:35;;;;;;;1.42;1.02;;;;;;;21.10;61.81;97369.41;10408129;28;20280;-29
2023/09/04 08:21:35;;;;;;;1.60;1.03;;;;;;;21.10;61.82;97366.84;10405740;28;20033;-28
2023/09/04 08:26:36;;;;;;;2.40;1.17;;;;;;;21.08;61.56;97370.25;10402336;28;20299;-29
2023/09/04 08:31:36;;;;;;;1.20;0.90;;;;;;;21.05;61.49;97355.81;10411433;28;20033;-29
2023/09/04 08:36:36;;;;;;;0.80;0.80;;;;;;;21.08;61.56;97366.00;10415090;28;20033;-29
2023/09/04 08:41:38;;;;;;;0.77;0.60;;;;;;;21.09;61.33;97362.59;10416683;28;20033;-28
2023/09/04 08:46:40;;;;;;;1.95;0.70;;;;;;;21.08;61.39;97353.28;10412410;28;20033;-29
2023/09/04 08:51:40;;;;;;;0.40;0.40;;;;;;;21.09;61.24;97354.97;10415229;28;20037;-29
2023/09/04 08:56:41;;;;;;;0.95;0.85;;;;;;;21.09;61.32;97356.66;10410720;28;20037;-28
2023/09/04 09:01:42;;;;;;;0.70;0.70;;;;;;;21.05;61.46;97353.25;10412389;28;20152;-30
2023/09/04 09:06:44;;;;;;;1.20;0.77;;;;;;;21.08;61.45;97360.06;10415822;28;20041;-28
2023/09/04 09:11:44;;;;;;;1.05;0.90;;;;;;;21.09;61.94;97357.53;10410491;28;20037;-29
2023/09/04 09:16:44;;;;;;;1.10;0.80;;;;;;;21.08;61.64;97360.06;10414947;28;20504;-28
2023/09/04 09:21:45;;;;;;;0.77;0.70;;;;;;;21.08;61.54;97345.63;10409303;28;20296;-28
2023/09/04 09:26:47;;;;;;;2.23;0.80;;;;;;;21.10;61.70;97337.97;10415311;28;20064;-28
2023/09/04 09:31:48;;;;;;;1.35;0.73;;;;;;;21.09;61.62;97342.25;10409305;28;20342;-29
2023/09/04 09:36:48;;;;;;;0.60;0.60;;;;;;;21.10;61.62;97343.06;10414494;28;20071;-29
2023/09/04 09:41:48;;;;;;;0.80;0.80;;;;;;;21.09;61.66;97347.34;10409681;28;20312;-28
2023/09/04 09:46:52;;;;;;;0.80;0.80;;;;;;;21.08;61.71;97327.81;10411698;28;20029;-28
2023/09/04 09:51:56;;;;;;;2.00;1.00;;;;;;;21.11;61.78;97332.03;10409196;28;20060;-29
2023/09/04 09:56:57;;;;;;;0.63;0.63;;;;;;;21.11;61.88;97329.50;10410906;28;20427;-29
2023/09/04 10:02:00;;;;;;;1.52;1.25;;;;;;;21.11;61.92;97334.56;10413377;28;20440;-28
2023/09/04 10:07:03;;;;;;;0.90;0.70;;;;;;;21.09;61.76;97329.50;10410807;28;20044;-28
2023/09/04 10:12:11;;;;;;;1.10;0.75;;;;;;;21.10;61.51;97325.25;10410406;28;20118;-29
2023/09/04 10:17:42;;;;;;;0.70;0.60;;;;;;;21.09;61.61;97313.38;10412716;28;20045;-28
2023/09/04 10:22:52;;;;;;;0.80;0.65;;;;;;;21.10;61.62;97308.28;10403382;28;20041;-29
2023/09/04 10:28:03;;;;;;;0.85;0.50;;;;;;;21.09;61.42;97296.41;10412790;28;20400;-29
2023/09/04 10:33:04;;;;;;;1.10;0.63;;;;;;;21.09;61.45;97291.31;10406798;28;20515;-28
2023/09/04 10:38:06;;;;;;;0.75;0.60;;;;;;;21.09;61.65;97285.34;10406776;28;20034;-28
2023/09/04 10:43:10;;;;;;;0.80;0.57;;;;;;;21.10;61.68;97282.81;10411864;28;20029;-29
2023/09/04 10:48:10;;;;;;;0.70;0.60;;;;;;;21.08;61.46;97276.88;10405603;28;20069;-30
2023/09/04 10:53:11;;;;;;;0.60;0.50;;;;;;;21.10;61.61;97271.78;10405898;28;20049;-29
2023/09/04 10:58:11;;;;;;;1.00;0.90;;;;;;;21.11;61.83;97281.09;10402539;28;20037;-30
2023/09/04 11:03:15;;;;;;;1.13;1.00;;;;;;;21.12;61.80;97273.47;10408360;28;20275;-29
2023/09/04 11:08:25;;;;;;;1.75;1.20;;;;;;;21.13;61.88;97264.97;10408171;28;20037;-29
2023/09/04 11:13:26;;;;;;;1.98;0.93;;;;;;;21.12;61.67;97270.06;10406123;28;20033;-29
2023/09/04 11:18:30;;;;;;;1.17;0.80;;;;;;;21.12;61.88;97259.88;10410758;28;20045;-29
2023/09/04 11:23:33;;;;;;;1.27;0.88;;;;;;;21.11;61.71;97248.00;10405643;28;20037;-28
2023/09/04 11:28:35;;;;;;;5.60;1.40;;;;;;;21.11;61.96;97259.06;10402087;28;20393;-30
2023/09/04 11:33:35;;;;;;;2.10;0.55;;;;;;;21.12;61.76;97245.47;10408458;28;20553;-28
2023/09/04 11:38:36;;;;;;;5.50;1.30;;;;;;;21.07;61.80;97236.16;10409627;28;20037;-29
2023/09/04 11:43:37;;;;;;;3.85;1.30;;;;;;;21.12;61.97;97248.00;10403822;28;20040;-29
2023/09/04 11:48:38;;;;;;;2.67;0.60;;;;;;;21.11;61.92;97236.13;10409320;28;20113;-29
2023/09/04 11:53:38;;;;;;;2.83;1.13;;;;;;;21.11;61.79;97236.13;10405133;28;20330;-28
2023/09/04 11:58:39;;;;;;;0.80;0.80;;;;;;;21.11;61.92;97227.63;10408433;28;20039;-29
2023/09/04 12:03:39;;;;;;;1.37;1.20;;;;;;;21.11;62.22;97233.59;10407478;28;20076;-28
2023/09/04 12:08:40;;;;;;;5.70;1.57;;;;;;;21.11;61.91;97223.41;10402195;28;20512;-28
2023/09/04 12:13:40;;;;;;;2.93;1.20;;;;;;;21.12;62.04;97216.59;10408076;28;20299;-27
2023/09/04 12:18:40;;;;;;;3.00;1.40;;;;;;;21.11;61.98;97213.22;10406265;28;20059;-29
2023/09/04 12:23:45;;;;;;;2.77;1.60;;;;;;;21.13;62.05;97206.41;10408302;28;20033;-29
2023/09/04 12:28:46;;;;;;;3.92;1.17;;;;;;;21.14;62.27;97197.91;10407015;28;20028;-29
2023/09/04 12:33:46;;;;;;;3.28;0.80;;;;;;;21.14;61.99;97205.56;10408259;28;20034;-29
2023/09/04 12:38:47;;;;;;;1.35;1.10;;;;;;;21.14;62.49;97197.91;10407376;28;20037;-29
2023/09/04 12:43:47;;;;;;;2.63;1.10;;;;;;;21.16;62.76;97190.28;10408111;28;20037;-28
2023/09/04 12:48:48;;;;;;;2.30;1.10;;;;;;;21.15;62.40;97180.97;10399788;28;20140;-28
2023/09/04 12:53:48;;;;;;;4.03;1.13;;;;;;;21.15;62.51;97179.25;10399547;28;20667;-28
2023/09/04 12:58:48;;;;;;;4.70;2.23;;;;;;;21.15;62.14;97181.78;10407928;28;20034;-29
2023/09/04 13:03:49;;;;;;;0.77;0.55;;;;;;;21.12;62.40;97174.16;10401372;28;20037;-29
2023/09/04 13:08:49;;;;;;;1.53;1.30;;;;;;;21.12;62.12;97169.06;10405159;28;20064;-29
2023/09/04 13:13:50;;;;;;;1.58;1.10;;;;;;;21.15;62.53;97166.50;10415316;28;20052;-29
2023/09/04 13:18:50;;;;;;;1.43;0.93;;;;;;;21.13;62.43;97155.47;10414281;28;20451;-30
2023/09/04 13:23:53;;;;;;;2.10;0.77;;;;;;;21.12;62.32;97146.16;10415451;28;20487;-27
2023/09/04 13:28:53;;;;;;;1.55;1.10;;;;;;;21.14;62.27;97141.91;10411446;28;20059;-29
2023/09/04 13:33:54;;;;;;;1.50;0.70;;;;;;;21.09;62.69;97123.25;10414459;28;20043;-29
2023/09/04 13:38:54;;;;;;;11.43;1.40;;;;;;;21.12;62.39;97120.69;10412412;28;20077;-29
2023/09/04 13:43:56;;;;;;;1.80;0.97;;;;;;;21.14;62.36;97136.81;10411424;28;20029;-28
2023/09/04 13:48:56;;;;;;;1.63;1.17;;;;;;;21.12;62.03;97123.25;10413969;28;20126;-28
2023/09/04 13:53:56;;;;;;;1.43;0.93;;;;;;;21.14;62.25;97128.34;10407786;28;20040;-28
2023/09/04 13:58:57;;;;;;;2.03;1.20;;;;;;;21.14;62.33;97121.53;10407521;28;20042;-29
2023/09/04 14:03:57;;;;;;;1.97;1.20;;;;;;;21.16;62.75;97114.75;10413166;28;20033;-28
2023/09/04 14:08:57;;;;;;;1.85;1.42;;;;;;;21.14;62.44;97116.44;10411248;28;20029;-29
2023/09/04 14:13:58;;;;;;;1.17;1.07;;;;;;;21.16;62.70;97116.44;10412419;28;20040;-28
2023/09/04 14:18:58;;;;;;;2.47;1.47;;;;;;;21.14;62.80;97106.25;10407622;28;20032;-28
2023/09/04 14:23:59;;;;;;;1.13;1.02;;;;;;;21.16;62.79;97113.88;10408274;28;20340;-27
2023/09/04 14:28:59;;;;;;;1.87;1.00;;;;;;;21.16;62.88;97103.72;10419941;28;20018;-28
2023/09/04 14:34:01;;;;;;;2.95;0.95;;;;;;;21.15;62.55;97097.75;10404883;28;20029;-28
2023/09/04 14:39:02;;;;;;;1.20;1.10;;;;;;;21.16;62.28;97098.63;10412052;28;20112;-28
2023/09/04 14:44:03;;;;;;;1.60;1.15;;;;;;;21.13;62.69;97099.47;10411154;28;20120;-28
2023/09/04 14:49:04;;;;;;;2.63;1.20;;;;;;;21.16;62.97;97104.56;10410003;28;20068;-28
2023/09/04 14:54:05;;;;;;;3.58;1.40;;;;;;;21.16;63.29;97109.66;10410857;28;20052;-28
2023/09/04 14:59:05;;;;;;;1.90;0.97;;;;;;;21.16;63.18;97099.47;10407605;28;20056;-29
2023/09/04 15:04:06;;;;;;;1.37;1.03;;;;;;;21.15;62.93;97097.75;10410729;28;20280;-29
2023/09/04 15:09:06;;;;;;;1.13;1.03;;;;;;;21.15;62.78;97087.56;10406719;28;20041;-28
2023/09/04 15:14:06;;;;;;;0.90;0.80;;;;;;;21.17;63.61;97085.03;10409146;28;20073;-28
2023/09/04 15:19:07;;;;;;;0.77;0.70;;;;;;;21.16;62.76;97081.66;10404018;28;20350;-28
2023/09/04 15:24:07;;;;;;;3.27;1.00;;;;;;;21.15;62.88;97086.75;10406187;28;20060;-30
2023/09/04 15:29:07;;;;;;;1.20;1.10;;;;;;;21.17;63.04;97085.88;10403129;28;20288;-28
2023/09/04 15:34:08;;;;;;;3.90;1.20;;;;;;;21.17;63.40;97075.69;10405348;28;20022;-29
2023/09/04 15:39:08;;;;;;;2.83;1.50;;;;;;;21.15;62.75;97067.19;10403439;28;20041;-28
2023/09/04 15:44:09;;;;;;;4.85;1.60;;;;;;;21.13;62.71;97058.72;10404016;28;20103;-29
2023/09/04 15:49:09;;;;;;;1.40;1.30;;;;;;;21.15;62.30;97057.00;10405396;28;20056;-29
2023/09/04 15:54:11;;;;;;;0.73;0.73;;;;;;;21.14;62.52;97045.13;10402566;28;20480;-29
2023/09/04 15:59:12;;;;;;;1.77;0.98;;;;;;;21.16;63.07;97052.78;10399771;28;20037;-29
2023/09/04 16:04:12;;;;;;;1.47;1.07;;;;;;;21.16;63.50;97048.53;10398305;28;20064;-28
2023/09/04 16:09:12;;;;;;;1.77;1.00;;;;;;;21.19;63.00;97045.97;10399714;28;20037;-28
2023/09/04 16:14:13;;;;;;;1.70;1.00;;;;;;;21.20;62.92;97045.13;10406028;28;20034;-29
2023/09/04 16:19:13;;;;;;;6.85;2.95;;;;;;;21.20;62.73;97034.06;10399719;28;20041;-28
2023/09/04 16:24:17;;;;;;;4.93;1.90;;;;;;;21.22;65.00;97038.31;10405650;28;20060;-29
2023/09/04 16:29:17;;;;;;;3.47;1.10;;;;;;;21.23;63.11;97039.16;10391430;28;20043;-28
2023/09/04 16:34:18;;;;;;;3.20;1.10;;;;;;;21.24;62.96;97045.94;10389560;28;20037;-28
2023/09/04 16:39:19;;;;;;;1.48;1.25;;;;;;;21.24;62.95;97043.41;10401480;28;20095;-30
2023/09/04 16:44:19;;;;;;;2.13;1.08;;;;;;;21.24;62.85;97045.94;10401079;28;20052;-28
2023/09/04 16:49:20;;;;;;;1.30;1.10;;;;;;;21.25;62.77;97042.53;10408418;28;20036;-29
2023/09/04 16:54:20;;;;;;;3.67;1.40;;;;;;;21.22;62.64;97043.41;10416106;28;20536;-29
2023/09/04 16:59:20;;;;;;;2.30;1.10;;;;;;;21.22;63.13;97048.50;10415699;28;20345;-29
2023/09/04 17:04:21;;;;;;;1.13;0.97;;;;;;;21.21;62.55;97041.72;10412515;28;20033;-28
2023/09/04 17:09:21;;;;;;;1.90;1.13;;;;;;;21.17;62.67;97029.88;10413380;28;20036;-29
2023/09/04 17:14:22;;;;;;;1.27;1.05;;;;;;;21.21;62.57;97036.63;10407132;28;20037;-28
2023/09/04 17:19:23;;;;;;;1.27;1.10;;;;;;;21.21;62.68;97036.63;10410425;28;20064;-29
2023/09/04 17:24:23;;;;;;;2.60;1.13;;;;;;;21.21;62.40;97038.34;10407688;28;20113;-28
2023/09/04 17:29:23;;;;;;;14.67;1.13;;;;;;;21.21;63.01;97031.53;10414480;28;20029;-29
2023/09/04 17:34:25;;;;;;;3.93;1.57;;;;;;;21.18;62.66;97029.00;10404450;28;20311;-29
2023/09/04 17:39:27;;;;;;;1.90;1.02;;;;;;;21.16;62.57;97033.28;10398248;28;20562;-28
2023/09/04 17:44:27;;;;;;;2.88;1.35;;;;;;;21.22;62.59;97038.31;10405555;28;20033;-29
2023/09/04 17:49:28;;;;;;;6.73;1.30;;;;;;;21.26;65.67;97045.09;10399420;28;20033;-29
2023/09/04 17:54:29;;;;;;;12.63;3.13;;;;;;;21.26;62.75;97040.00;10394816;28;20554;-29
2023/09/04 17:59:29;;;;;;;4.47;1.00;;;;;;;21.25;62.65;97038.31;10403956;28;20033;-29
2023/09/04 18:04:32;;;;;;;9.40;0.90;;;;;;;21.24;62.58;97028.94;10403163;28;20026;-29
2023/09/04 18:09:32;;;;;;;6.78;2.20;;;;;;;21.25;63.03;97033.22;10393058;28;20036;-28
2023/09/04 18:14:32;;;;;;;5.70;1.17;;;;;;;21.24;62.75;97028.94;10406793;28;20029;-29
2023/09/04 18:19:36;;;;;;;3.73;1.00;;;;;;;21.23;62.50;97027.25;10394004;28;20468;-29
2023/09/04 18:24:36;;;;;;;2.33;1.10;;;;;;;21.22;62.44;97033.22;10403133;28;20511;-29
2023/09/04 18:29:37;;;;;;;3.17;1.40;;;;;;;21.24;64.02;97031.50;10400008;28;20148;-29
2023/09/04 18:34:38;;;;;;;1.95;1.40;;;;;;;21.25;63.17;97035.75;10399581;28;20843;-29
2023/09/04 18:45:32;;;;;;;4.47;1.80;;;;;;;21.23;63.75;97028.97;10524898;27;1310289;-25
2023/09/04 18:50:32;;;;;;;6.33;1.73;;;;;;;21.22;63.04;97038.31;10500991;28;20127;-26
2023/09/04 18:55:33;;;;;;;3.13;1.70;;;;;;;21.22;63.82;97035.75;10495245;28;20456;-26
2023/09/04 19:00:33;;;;;;;3.93;1.60;;;;;;;21.23;63.59;97045.09;10504683;28;20129;-27
2023/09/04 19:05:33;;;;;;;2.50;1.57;;;;;;;21.22;63.75;97038.31;10506761;28;20501;-25
2023/09/04 19:10:36;;;;;;;2.60;1.53;;;;;;;21.21;63.47;97036.63;10503891;28;20501;-26
2023/09/04 19:15:36;;;;;;;1.83;1.13;;;;;;;21.22;63.20;97045.13;10504857;28;20032;-25
2023/09/04 19:20:37;;;;;;;1.03;0.93;;;;;;;21.20;63.19;97051.91;10500750;28;20040;-26
2023/09/04 19:25:37;;;;;;;3.17;1.37;;;;;;;21.21;63.09;97051.06;10492485;28;20055;-26
2023/09/04 19:30:38;;;;;;;1.77;1.10;;;;;;;21.19;62.75;97053.59;10500808;28;20287;-26
2023/09/04 19:35:38;;;;;;;2.87;1.27;;;;;;;21.19;62.51;97053.59;10502527;28;20126;-26
2023/09/04 19:40:39;;;;;;;2.53;1.00;;;;;;;21.19;62.69;97058.72;10507833;28;20033;-26
2023/09/04 19:45:39;;;;;;;1.40;1.00;;;;;;;21.20;62.59;97062.09;10513249;28;20032;-26
2023/09/04 19:50:39;;;;;;;3.50;1.47;;;;;;;21.18;62.58;97059.56;10508700;28;20032;-26
2023/09/04 19:55:40;;;;;;;1.10;1.00;;;;;;;21.19;62.83;97068.03;10481487;28;20807;-26
2023/09/04 20:00:40;;;;;;;2.17;1.23;;;;;;;21.19;62.27;97071.44;10474912;28;20333;-26
2023/09/04 20:05:41;;;;;;;2.27;1.17;;;;;;;21.20;62.57;97069.72;10472389;28;20032;-28
2023/09/04 20:10:41;;;;;;;3.83;1.13;;;;;;;21.22;63.66;97071.41;10470277;28;20286;-26
2023/09/04 20:15:42;;;;;;;4.40;1.23;;;;;;;21.21;62.75;97068.91;10468624;28;20033;-26
2023/09/04 20:20:42;;;;;;;1.23;1.07;;;;;;;21.20;62.54;97078.22;10488290;28;20534;-25
2023/09/04 20:25:42;;;;;;;1.63;1.00;;;;;;;21.19;62.88;97068.88;10487343;28;20043;-26
2023/09/04 20:30:50;;;;;;;1.00;0.90;;;;;;;21.19;62.77;97073.97;10483048;28;20290;-26
2023/09/04 20:35:51;;;;;;;1.92;1.27;;;;;;;21.19;62.79;97073.97;10471196;28;20036;-26
2023/09/04 20:40:54;;;;;;;1.25;0.88;;;;;;;21.19;62.33;97079.06;10469476;28;20032;-26
2023/09/04 20:45:54;;;;;;;1.27;1.00;;;;;;;21.19;62.55;97068.03;10470626;28;20029;-28
2023/09/04 20:50:55;;;;;;;2.40;1.03;;;;;;;21.13;62.54;97048.53;10449309;28;20060;-26
2023/09/04 20:55:55;;;;;;;1.90;0.98;;;;;;;21.17;62.59;97050.25;10459394;28;20044;-26
2023/09/04 21:00:56;;;;;;;1.20;1.00;;;;;;;21.17;62.56;97050.25;10453256;28;20093;-27
2023/09/04 21:06:00;;;;;;;0.80;0.60;;;;;;;21.17;62.18;97042.59;10456886;28;20106;-26
2023/09/04 23:23:48;;;;;;;1.50;0.93;;;;;;;21.17;61.98;96985.72;10453582;28;20028;-26
2023/09/04 23:28:48;;;;;;;1.33;0.90;;;;;;;21.17;61.70;96986.56;10458506;28;20032;-27
2023/09/04 23:33:59;;;;;;;3.70;1.40;;;;;;;21.19;62.30;96982.31;10454206;28;20032;-25
2023/09/04 23:45:06;;;;;;;1.05;0.85;;;;;;;21.19;62.04;96984.00;10462543;28;20474;-26
2023/09/04 23:49:50;;;;;;;0.80;0.77;;;;;;;21.18;61.98;96980.63;10462681;28;20032;-27
2023/09/04 23:54:52;;;;;;;0.88;0.88;;;;;;;21.17;61.84;96984.03;10475056;28;20110;-25
2023/09/04 23:59:52;;;;;;;0.63;0.63;;;;;;;21.15;61.44;96975.53;10463951;28;20128;-26
